<?xml version="1.0" encoding="UTF-8" standalone="no" ?>
<gpx xmlns="http://www.topografix.com/GPX/1/1" xmlns:xsi="http://www.w3.org/2001/XMLSchema-instance" xsi:schemaLocation="http://www.topografix.com/GPX/1/1 http://www.topografix.com/GPX/1/1/gpx.xsd" version="1.1" creator="VisuGPX - https://www.visugpx.com">
  <metadata>
    <name>13899796-VTT SCA Villecomtal</name>
  </metadata>
  <trk>
    <name><![CDATA[13899796-VTT SCA Villecomtal]]></name>
    <trkseg>
      <trkpt lat="44.49359" lon="2.57548">
        <ele>441</ele>
        <time>2021-11-03T13:29:27Z</time>
      </trkpt>
      <trkpt lat="44.49441" lon="2.57635">
        <ele>432</ele>
        <time>2021-11-03T13:29:51Z</time>
      </trkpt>
      <trkpt lat="44.49432" lon="2.57768">
        <ele>429</ele>
        <time>2021-11-03T13:30:13Z</time>
      </trkpt>
      <trkpt lat="44.49452" lon="2.57913">
        <ele>424</ele>
        <time>2021-11-03T13:30:38Z</time>
      </trkpt>
      <trkpt lat="44.49597" lon="2.57959">
        <ele>420</ele>
        <time>2021-11-03T13:31:13Z</time>
      </trkpt>
      <trkpt lat="44.49718" lon="2.57941">
        <ele>421</ele>
        <time>2021-11-03T13:31:41Z</time>
      </trkpt>
      <trkpt lat="44.49865" lon="2.57941">
        <ele>403</ele>
        <time>2021-11-03T13:32:15Z</time>
      </trkpt>
      <trkpt lat="44.49898" lon="2.57929">
        <ele>399</ele>
        <time>2021-11-03T13:32:23Z</time>
      </trkpt>
      <trkpt lat="44.49941" lon="2.57922">
        <ele>395</ele>
        <time>2021-11-03T13:32:33Z</time>
      </trkpt>
      <trkpt lat="44.49914" lon="2.57957">
        <ele>391</ele>
        <time>2021-11-03T13:32:42Z</time>
      </trkpt>
      <trkpt lat="44.49906" lon="2.58015">
        <ele>384</ele>
        <time>2021-11-03T13:32:52Z</time>
      </trkpt>
      <trkpt lat="44.49986" lon="2.58081">
        <ele>385</ele>
        <time>2021-11-03T13:33:14Z</time>
      </trkpt>
      <trkpt lat="44.50071" lon="2.58103">
        <ele>390</ele>
        <time>2021-11-03T13:33:34Z</time>
      </trkpt>
      <trkpt lat="44.50149" lon="2.58114">
        <ele>395</ele>
        <time>2021-11-03T13:33:52Z</time>
      </trkpt>
      <trkpt lat="44.5021" lon="2.58134">
        <ele>407</ele>
        <time>2021-11-03T13:34:07Z</time>
      </trkpt>
      <trkpt lat="44.50264" lon="2.5812">
        <ele>408</ele>
        <time>2021-11-03T13:34:19Z</time>
      </trkpt>
      <trkpt lat="44.5032" lon="2.58198">
        <ele>425</ele>
        <time>2021-11-03T13:34:38Z</time>
      </trkpt>
      <trkpt lat="44.50361" lon="2.58238">
        <ele>427</ele>
        <time>2021-11-03T13:34:50Z</time>
      </trkpt>
      <trkpt lat="44.50414" lon="2.58251">
        <ele>424</ele>
        <time>2021-11-03T13:35:02Z</time>
      </trkpt>
      <trkpt lat="44.50449" lon="2.58282">
        <ele>418</ele>
        <time>2021-11-03T13:35:12Z</time>
      </trkpt>
      <trkpt lat="44.50411" lon="2.58336">
        <ele>439</ele>
        <time>2021-11-03T13:35:24Z</time>
      </trkpt>
      <trkpt lat="44.50384" lon="2.58398">
        <ele>450</ele>
        <time>2021-11-03T13:35:37Z</time>
      </trkpt>
      <trkpt lat="44.50365" lon="2.5846">
        <ele>463</ele>
        <time>2021-11-03T13:35:48Z</time>
      </trkpt>
      <trkpt lat="44.50406" lon="2.58534">
        <ele>459</ele>
        <time>2021-11-03T13:36:03Z</time>
      </trkpt>
      <trkpt lat="44.5033" lon="2.585">
        <ele>479</ele>
        <time>2021-11-03T13:36:22Z</time>
      </trkpt>
      <trkpt lat="44.50308" lon="2.58421">
        <ele>473</ele>
        <time>2021-11-03T13:36:36Z</time>
      </trkpt>
      <trkpt lat="44.50268" lon="2.58413">
        <ele>480</ele>
        <time>2021-11-03T13:36:46Z</time>
      </trkpt>
      <trkpt lat="44.5029" lon="2.58456">
        <ele>483</ele>
        <time>2021-11-03T13:36:54Z</time>
      </trkpt>
      <trkpt lat="44.50273" lon="2.58551">
        <ele>498</ele>
        <time>2021-11-03T13:37:11Z</time>
      </trkpt>
      <trkpt lat="44.50243" lon="2.58506">
        <ele>502</ele>
        <time>2021-11-03T13:37:21Z</time>
      </trkpt>
      <trkpt lat="44.50208" lon="2.58505">
        <ele>503</ele>
        <time>2021-11-03T13:37:29Z</time>
      </trkpt>
      <trkpt lat="44.50181" lon="2.5852">
        <ele>507</ele>
        <time>2021-11-03T13:37:36Z</time>
      </trkpt>
      <trkpt lat="44.50193" lon="2.58628">
        <ele>525</ele>
        <time>2021-11-03T13:37:54Z</time>
      </trkpt>
      <trkpt lat="44.50215" lon="2.58684">
        <ele>524</ele>
        <time>2021-11-03T13:38:05Z</time>
      </trkpt>
      <trkpt lat="44.50313" lon="2.58884">
        <ele>518</ele>
        <time>2021-11-03T13:38:45Z</time>
      </trkpt>
      <trkpt lat="44.5028" lon="2.59017">
        <ele>530</ele>
        <time>2021-11-03T13:39:09Z</time>
      </trkpt>
      <trkpt lat="44.50221" lon="2.59137">
        <ele>535</ele>
        <time>2021-11-03T13:39:33Z</time>
      </trkpt>
      <trkpt lat="44.50175" lon="2.59194">
        <ele>537</ele>
        <time>2021-11-03T13:39:47Z</time>
      </trkpt>
      <trkpt lat="44.5013" lon="2.59209">
        <ele>542</ele>
        <time>2021-11-03T13:39:58Z</time>
      </trkpt>
      <trkpt lat="44.50073" lon="2.59314">
        <ele>546</ele>
        <time>2021-11-03T13:40:20Z</time>
      </trkpt>
      <trkpt lat="44.49983" lon="2.59348">
        <ele>555</ele>
        <time>2021-11-03T13:40:42Z</time>
      </trkpt>
      <trkpt lat="44.49929" lon="2.59419">
        <ele>556</ele>
        <time>2021-11-03T13:40:59Z</time>
      </trkpt>
      <trkpt lat="44.49837" lon="2.59514">
        <ele>553</ele>
        <time>2021-11-03T13:41:26Z</time>
      </trkpt>
      <trkpt lat="44.49801" lon="2.59625">
        <ele>552</ele>
        <time>2021-11-03T13:41:46Z</time>
      </trkpt>
      <trkpt lat="44.49769" lon="2.59754">
        <ele>552</ele>
        <time>2021-11-03T13:42:09Z</time>
      </trkpt>
      <trkpt lat="44.49879" lon="2.59688">
        <ele>546</ele>
        <time>2021-11-03T13:42:37Z</time>
      </trkpt>
      <trkpt lat="44.49994" lon="2.59522">
        <ele>546</ele>
        <time>2021-11-03T13:43:15Z</time>
      </trkpt>
      <trkpt lat="44.50097" lon="2.59442">
        <ele>536</ele>
        <time>2021-11-03T13:43:43Z</time>
      </trkpt>
      <trkpt lat="44.50163" lon="2.59386">
        <ele>531</ele>
        <time>2021-11-03T13:44:01Z</time>
      </trkpt>
      <trkpt lat="44.50198" lon="2.59311">
        <ele>528</ele>
        <time>2021-11-03T13:44:16Z</time>
      </trkpt>
      <trkpt lat="44.5025" lon="2.59386">
        <ele>513</ele>
        <time>2021-11-03T13:44:33Z</time>
      </trkpt>
      <trkpt lat="44.5018" lon="2.59514">
        <ele>498</ele>
        <time>2021-11-03T13:45:00Z</time>
      </trkpt>
      <trkpt lat="44.5009" lon="2.5961">
        <ele>490</ele>
        <time>2021-11-03T13:45:26Z</time>
      </trkpt>
      <trkpt lat="44.50056" lon="2.59615">
        <ele>500</ele>
        <time>2021-11-03T13:45:34Z</time>
      </trkpt>
      <trkpt lat="44.49996" lon="2.59774">
        <ele>475</ele>
        <time>2021-11-03T13:46:04Z</time>
      </trkpt>
      <trkpt lat="44.49954" lon="2.59953">
        <ele>462</ele>
        <time>2021-11-03T13:46:36Z</time>
      </trkpt>
      <trkpt lat="44.49925" lon="2.60031">
        <ele>463</ele>
        <time>2021-11-03T13:46:50Z</time>
      </trkpt>
      <trkpt lat="44.49943" lon="2.60119">
        <ele>450</ele>
        <time>2021-11-03T13:47:06Z</time>
      </trkpt>
      <trkpt lat="44.49989" lon="2.60175">
        <ele>437</ele>
        <time>2021-11-03T13:47:20Z</time>
      </trkpt>
      <trkpt lat="44.50064" lon="2.60166">
        <ele>425</ele>
        <time>2021-11-03T13:47:37Z</time>
      </trkpt>
      <trkpt lat="44.50149" lon="2.60115">
        <ele>416</ele>
        <time>2021-11-03T13:47:59Z</time>
      </trkpt>
      <trkpt lat="44.502" lon="2.60141">
        <ele>404</ele>
        <time>2021-11-03T13:48:12Z</time>
      </trkpt>
      <trkpt lat="44.50256" lon="2.60141">
        <ele>395</ele>
        <time>2021-11-03T13:48:25Z</time>
      </trkpt>
      <trkpt lat="44.50325" lon="2.60162">
        <ele>378</ele>
        <time>2021-11-03T13:48:41Z</time>
      </trkpt>
      <trkpt lat="44.50351" lon="2.60092">
        <ele>387</ele>
        <time>2021-11-03T13:48:54Z</time>
      </trkpt>
      <trkpt lat="44.50419" lon="2.60108">
        <ele>372</ele>
        <time>2021-11-03T13:49:11Z</time>
      </trkpt>
      <trkpt lat="44.50458" lon="2.60103">
        <ele>361</ele>
        <time>2021-11-03T13:49:20Z</time>
      </trkpt>
      <trkpt lat="44.5049" lon="2.60088">
        <ele>353</ele>
        <time>2021-11-03T13:49:28Z</time>
      </trkpt>
      <trkpt lat="44.50485" lon="2.60047">
        <ele>358</ele>
        <time>2021-11-03T13:49:35Z</time>
      </trkpt>
      <trkpt lat="44.50679" lon="2.59947">
        <ele>336</ele>
        <time>2021-11-03T13:50:23Z</time>
      </trkpt>
      <trkpt lat="44.50671" lon="2.59895">
        <ele>337</ele>
        <time>2021-11-03T13:50:32Z</time>
      </trkpt>
      <trkpt lat="44.50764" lon="2.59724">
        <ele>345</ele>
        <time>2021-11-03T13:51:07Z</time>
      </trkpt>
      <trkpt lat="44.50801" lon="2.59733">
        <ele>339</ele>
        <time>2021-11-03T13:51:16Z</time>
      </trkpt>
      <trkpt lat="44.50875" lon="2.59646">
        <ele>345</ele>
        <time>2021-11-03T13:51:39Z</time>
      </trkpt>
      <trkpt lat="44.50921" lon="2.59612">
        <ele>341</ele>
        <time>2021-11-03T13:51:51Z</time>
      </trkpt>
      <trkpt lat="44.50922" lon="2.59532">
        <ele>342</ele>
        <time>2021-11-03T13:52:04Z</time>
      </trkpt>
      <trkpt lat="44.50851" lon="2.59341">
        <ele>346</ele>
        <time>2021-11-03T13:52:40Z</time>
      </trkpt>
      <trkpt lat="44.50849" lon="2.59099">
        <ele>359</ele>
        <time>2021-11-03T13:53:20Z</time>
      </trkpt>
      <trkpt lat="44.50931" lon="2.58953">
        <ele>337</ele>
        <time>2021-11-03T13:53:51Z</time>
      </trkpt>
      <trkpt lat="44.50902" lon="2.58809">
        <ele>337</ele>
        <time>2021-11-03T13:54:16Z</time>
      </trkpt>
      <trkpt lat="44.50925" lon="2.58733">
        <ele>334</ele>
        <time>2021-11-03T13:54:30Z</time>
      </trkpt>
      <trkpt lat="44.50934" lon="2.58668">
        <ele>337</ele>
        <time>2021-11-03T13:54:41Z</time>
      </trkpt>
      <trkpt lat="44.5089" lon="2.58555">
        <ele>349</ele>
        <time>2021-11-03T13:55:03Z</time>
      </trkpt>
      <trkpt lat="44.50867" lon="2.58509">
        <ele>355</ele>
        <time>2021-11-03T13:55:12Z</time>
      </trkpt>
      <trkpt lat="44.50925" lon="2.58511">
        <ele>362</ele>
        <time>2021-11-03T13:55:25Z</time>
      </trkpt>
      <trkpt lat="44.51044" lon="2.5843">
        <ele>385</ele>
        <time>2021-11-03T13:55:56Z</time>
      </trkpt>
      <trkpt lat="44.51105" lon="2.58396">
        <ele>391</ele>
        <time>2021-11-03T13:56:12Z</time>
      </trkpt>
      <trkpt lat="44.51135" lon="2.58327">
        <ele>404</ele>
        <time>2021-11-03T13:56:25Z</time>
      </trkpt>
      <trkpt lat="44.51169" lon="2.58354">
        <ele>399</ele>
        <time>2021-11-03T13:56:34Z</time>
      </trkpt>
      <trkpt lat="44.51214" lon="2.58367">
        <ele>410</ele>
        <time>2021-11-03T13:56:45Z</time>
      </trkpt>
      <trkpt lat="44.51209" lon="2.58434">
        <ele>403</ele>
        <time>2021-11-03T13:56:56Z</time>
      </trkpt>
      <trkpt lat="44.51241" lon="2.58482">
        <ele>410</ele>
        <time>2021-11-03T13:57:07Z</time>
      </trkpt>
      <trkpt lat="44.51257" lon="2.58592">
        <ele>416</ele>
        <time>2021-11-03T13:57:26Z</time>
      </trkpt>
      <trkpt lat="44.51311" lon="2.58376">
        <ele>435</ele>
        <time>2021-11-03T13:58:04Z</time>
      </trkpt>
      <trkpt lat="44.51338" lon="2.58335">
        <ele>447</ele>
        <time>2021-11-03T13:58:13Z</time>
      </trkpt>
      <trkpt lat="44.5133" lon="2.58293">
        <ele>452</ele>
        <time>2021-11-03T13:58:20Z</time>
      </trkpt>
      <trkpt lat="44.51328" lon="2.58251">
        <ele>458</ele>
        <time>2021-11-03T13:58:27Z</time>
      </trkpt>
      <trkpt lat="44.51352" lon="2.58201">
        <ele>469</ele>
        <time>2021-11-03T13:58:38Z</time>
      </trkpt>
      <trkpt lat="44.51343" lon="2.58137">
        <ele>478</ele>
        <time>2021-11-03T13:58:48Z</time>
      </trkpt>
      <trkpt lat="44.51324" lon="2.58103">
        <ele>484</ele>
        <time>2021-11-03T13:58:56Z</time>
      </trkpt>
      <trkpt lat="44.51302" lon="2.5808">
        <ele>486</ele>
        <time>2021-11-03T13:59:02Z</time>
      </trkpt>
      <trkpt lat="44.51277" lon="2.58021">
        <ele>493</ele>
        <time>2021-11-03T13:59:13Z</time>
      </trkpt>
      <trkpt lat="44.51313" lon="2.58045">
        <ele>494</ele>
        <time>2021-11-03T13:59:23Z</time>
      </trkpt>
      <trkpt lat="44.51335" lon="2.58025">
        <ele>501</ele>
        <time>2021-11-03T13:59:29Z</time>
      </trkpt>
      <trkpt lat="44.51332" lon="2.58001">
        <ele>506</ele>
        <time>2021-11-03T13:59:33Z</time>
      </trkpt>
      <trkpt lat="44.51277" lon="2.57971">
        <ele>502</ele>
        <time>2021-11-03T13:59:47Z</time>
      </trkpt>
      <trkpt lat="44.51276" lon="2.57934">
        <ele>508</ele>
        <time>2021-11-03T13:59:53Z</time>
      </trkpt>
      <trkpt lat="44.5133" lon="2.57917">
        <ele>522</ele>
        <time>2021-11-03T14:00:06Z</time>
      </trkpt>
      <trkpt lat="44.51385" lon="2.57916">
        <ele>527</ele>
        <time>2021-11-03T14:00:19Z</time>
      </trkpt>
      <trkpt lat="44.51409" lon="2.57941">
        <ele>525</ele>
        <time>2021-11-03T14:00:26Z</time>
      </trkpt>
      <trkpt lat="44.51452" lon="2.57923">
        <ele>526</ele>
        <time>2021-11-03T14:00:36Z</time>
      </trkpt>
      <trkpt lat="44.51464" lon="2.57902">
        <ele>528</ele>
        <time>2021-11-03T14:00:41Z</time>
      </trkpt>
      <trkpt lat="44.51473" lon="2.57864">
        <ele>534</ele>
        <time>2021-11-03T14:00:47Z</time>
      </trkpt>
      <trkpt lat="44.51508" lon="2.57839">
        <ele>535</ele>
        <time>2021-11-03T14:00:56Z</time>
      </trkpt>
      <trkpt lat="44.51513" lon="2.57825">
        <ele>536</ele>
        <time>2021-11-03T14:00:59Z</time>
      </trkpt>
      <trkpt lat="44.51476" lon="2.57779">
        <ele>544</ele>
        <time>2021-11-03T14:01:11Z</time>
      </trkpt>
      <trkpt lat="44.51439" lon="2.57717">
        <ele>550</ele>
        <time>2021-11-03T14:01:24Z</time>
      </trkpt>
      <trkpt lat="44.51499" lon="2.57501">
        <ele>556</ele>
        <time>2021-11-03T14:02:03Z</time>
      </trkpt>
      <trkpt lat="44.515" lon="2.57428">
        <ele>557</ele>
        <time>2021-11-03T14:02:15Z</time>
      </trkpt>
      <trkpt lat="44.51566" lon="2.57265">
        <ele>568</ele>
        <time>2021-11-03T14:02:46Z</time>
      </trkpt>
      <trkpt lat="44.51602" lon="2.57099">
        <ele>578</ele>
        <time>2021-11-03T14:03:15Z</time>
      </trkpt>
      <trkpt lat="44.51681" lon="2.57087">
        <ele>574</ele>
        <time>2021-11-03T14:03:33Z</time>
      </trkpt>
      <trkpt lat="44.51798" lon="2.56881">
        <ele>563</ele>
        <time>2021-11-03T14:04:17Z</time>
      </trkpt>
      <trkpt lat="44.51856" lon="2.5679">
        <ele>556</ele>
        <time>2021-11-03T14:04:38Z</time>
      </trkpt>
      <trkpt lat="44.52123" lon="2.5672">
        <ele>534</ele>
        <time>2021-11-03T14:05:41Z</time>
      </trkpt>
      <trkpt lat="44.52252" lon="2.56599">
        <ele>533</ele>
        <time>2021-11-03T14:06:17Z</time>
      </trkpt>
      <trkpt lat="44.52361" lon="2.56511">
        <ele>533</ele>
        <time>2021-11-03T14:06:47Z</time>
      </trkpt>
      <trkpt lat="44.5239" lon="2.56376">
        <ele>523</ele>
        <time>2021-11-03T14:07:10Z</time>
      </trkpt>
      <trkpt lat="44.52426" lon="2.56316">
        <ele>515</ele>
        <time>2021-11-03T14:07:23Z</time>
      </trkpt>
      <trkpt lat="44.52567" lon="2.56346">
        <ele>509</ele>
        <time>2021-11-03T14:07:57Z</time>
      </trkpt>
      <trkpt lat="44.52614" lon="2.56301">
        <ele>497</ele>
        <time>2021-11-03T14:08:10Z</time>
      </trkpt>
      <trkpt lat="44.52645" lon="2.56404">
        <ele>500</ele>
        <time>2021-11-03T14:08:28Z</time>
      </trkpt>
      <trkpt lat="44.52714" lon="2.56434">
        <ele>491</ele>
        <time>2021-11-03T14:08:45Z</time>
      </trkpt>
      <trkpt lat="44.52523" lon="2.56531">
        <ele>503</ele>
        <time>2021-11-03T14:09:33Z</time>
      </trkpt>
      <trkpt lat="44.5246" lon="2.56625">
        <ele>501</ele>
        <time>2021-11-03T14:09:54Z</time>
      </trkpt>
      <trkpt lat="44.52466" lon="2.56709">
        <ele>484</ele>
        <time>2021-11-03T14:10:08Z</time>
      </trkpt>
      <trkpt lat="44.52492" lon="2.56818">
        <ele>465</ele>
        <time>2021-11-03T14:10:27Z</time>
      </trkpt>
      <trkpt lat="44.52468" lon="2.5687">
        <ele>464</ele>
        <time>2021-11-03T14:10:38Z</time>
      </trkpt>
      <trkpt lat="44.52533" lon="2.56872">
        <ele>446</ele>
        <time>2021-11-03T14:10:53Z</time>
      </trkpt>
      <trkpt lat="44.5254" lon="2.5679">
        <ele>450</ele>
        <time>2021-11-03T14:11:07Z</time>
      </trkpt>
      <trkpt lat="44.5257" lon="2.56717">
        <ele>443</ele>
        <time>2021-11-03T14:11:21Z</time>
      </trkpt>
      <trkpt lat="44.52654" lon="2.56651">
        <ele>440</ele>
        <time>2021-11-03T14:11:43Z</time>
      </trkpt>
      <trkpt lat="44.52729" lon="2.56634">
        <ele>435</ele>
        <time>2021-11-03T14:12:01Z</time>
      </trkpt>
      <trkpt lat="44.52902" lon="2.56677">
        <ele>412</ele>
        <time>2021-11-03T14:12:42Z</time>
      </trkpt>
      <trkpt lat="44.52992" lon="2.56524">
        <ele>401</ele>
        <time>2021-11-03T14:13:15Z</time>
      </trkpt>
      <trkpt lat="44.53081" lon="2.56505">
        <ele>381</ele>
        <time>2021-11-03T14:13:36Z</time>
      </trkpt>
      <trkpt lat="44.53164" lon="2.56554">
        <ele>371</ele>
        <time>2021-11-03T14:13:57Z</time>
      </trkpt>
      <trkpt lat="44.53213" lon="2.56545">
        <ele>356</ele>
        <time>2021-11-03T14:14:09Z</time>
      </trkpt>
      <trkpt lat="44.53278" lon="2.56591">
        <ele>334</ele>
        <time>2021-11-03T14:14:26Z</time>
      </trkpt>
      <trkpt lat="44.53294" lon="2.56544">
        <ele>328</ele>
        <time>2021-11-03T14:14:34Z</time>
      </trkpt>
      <trkpt lat="44.53312" lon="2.56596">
        <ele>320</ele>
        <time>2021-11-03T14:14:44Z</time>
      </trkpt>
      <trkpt lat="44.53342" lon="2.56539">
        <ele>312</ele>
        <time>2021-11-03T14:14:56Z</time>
      </trkpt>
      <trkpt lat="44.53395" lon="2.56512">
        <ele>306</ele>
        <time>2021-11-03T14:15:09Z</time>
      </trkpt>
      <trkpt lat="44.53409" lon="2.56432">
        <ele>310</ele>
        <time>2021-11-03T14:15:23Z</time>
      </trkpt>
      <trkpt lat="44.53439" lon="2.56392">
        <ele>314</ele>
        <time>2021-11-03T14:15:32Z</time>
      </trkpt>
      <trkpt lat="44.53566" lon="2.56348">
        <ele>317</ele>
        <time>2021-11-03T14:16:03Z</time>
      </trkpt>
      <trkpt lat="44.53651" lon="2.56395">
        <ele>314</ele>
        <time>2021-11-03T14:16:24Z</time>
      </trkpt>
      <trkpt lat="44.53689" lon="2.56467">
        <ele>308</ele>
        <time>2021-11-03T14:16:39Z</time>
      </trkpt>
      <trkpt lat="44.53689" lon="2.56538">
        <ele>311</ele>
        <time>2021-11-03T14:16:51Z</time>
      </trkpt>
      <trkpt lat="44.53753" lon="2.56541">
        <ele>310</ele>
        <time>2021-11-03T14:17:06Z</time>
      </trkpt>
      <trkpt lat="44.53843" lon="2.56447">
        <ele>313</ele>
        <time>2021-11-03T14:17:32Z</time>
      </trkpt>
      <trkpt lat="44.5387" lon="2.56488">
        <ele>317</ele>
        <time>2021-11-03T14:17:41Z</time>
      </trkpt>
      <trkpt lat="44.53959" lon="2.56378">
        <ele>313</ele>
        <time>2021-11-03T14:18:09Z</time>
      </trkpt>
      <trkpt lat="44.54045" lon="2.5628">
        <ele>313</ele>
        <time>2021-11-03T14:18:35Z</time>
      </trkpt>
      <trkpt lat="44.54248" lon="2.56323">
        <ele>322</ele>
        <time>2021-11-03T14:19:23Z</time>
      </trkpt>
      <trkpt lat="44.54325" lon="2.56514">
        <ele>354</ele>
        <time>2021-11-03T14:19:59Z</time>
      </trkpt>
      <trkpt lat="44.54341" lon="2.5643">
        <ele>341</ele>
        <time>2021-11-03T14:20:14Z</time>
      </trkpt>
      <trkpt lat="44.54425" lon="2.56374">
        <ele>347</ele>
        <time>2021-11-03T14:20:35Z</time>
      </trkpt>
      <trkpt lat="44.5454" lon="2.56284">
        <ele>351</ele>
        <time>2021-11-03T14:21:06Z</time>
      </trkpt>
      <trkpt lat="44.54595" lon="2.5628">
        <ele>358</ele>
        <time>2021-11-03T14:21:19Z</time>
      </trkpt>
      <trkpt lat="44.54806" lon="2.56411">
        <ele>406</ele>
        <time>2021-11-03T14:22:13Z</time>
      </trkpt>
      <trkpt lat="44.54814" lon="2.56376">
        <ele>405</ele>
        <time>2021-11-03T14:22:19Z</time>
      </trkpt>
      <trkpt lat="44.54737" lon="2.56267">
        <ele>379</ele>
        <time>2021-11-03T14:22:45Z</time>
      </trkpt>
      <trkpt lat="44.54831" lon="2.56258">
        <ele>398</ele>
        <time>2021-11-03T14:23:07Z</time>
      </trkpt>
      <trkpt lat="44.54901" lon="2.56248">
        <ele>416</ele>
        <time>2021-11-03T14:23:23Z</time>
      </trkpt>
      <trkpt lat="44.54967" lon="2.56187">
        <ele>418</ele>
        <time>2021-11-03T14:23:42Z</time>
      </trkpt>
      <trkpt lat="44.54948" lon="2.56288">
        <ele>439</ele>
        <time>2021-11-03T14:23:59Z</time>
      </trkpt>
      <trkpt lat="44.54874" lon="2.56348">
        <ele>423</ele>
        <time>2021-11-03T14:24:19Z</time>
      </trkpt>
      <trkpt lat="44.54945" lon="2.56499">
        <ele>452</ele>
        <time>2021-11-03T14:24:49Z</time>
      </trkpt>
      <trkpt lat="44.54938" lon="2.56374">
        <ele>449</ele>
        <time>2021-11-03T14:25:10Z</time>
      </trkpt>
      <trkpt lat="44.55036" lon="2.56271">
        <ele>464</ele>
        <time>2021-11-03T14:25:38Z</time>
      </trkpt>
      <trkpt lat="44.55146" lon="2.56265">
        <ele>494</ele>
        <time>2021-11-03T14:26:04Z</time>
      </trkpt>
      <trkpt lat="44.55173" lon="2.56162">
        <ele>482</ele>
        <time>2021-11-03T14:26:22Z</time>
      </trkpt>
      <trkpt lat="44.55364" lon="2.56035">
        <ele>490</ele>
        <time>2021-11-03T14:27:12Z</time>
      </trkpt>
      <trkpt lat="44.55344" lon="2.56155">
        <ele>516</ele>
        <time>2021-11-03T14:27:32Z</time>
      </trkpt>
      <trkpt lat="44.5532" lon="2.56213">
        <ele>522</ele>
        <time>2021-11-03T14:27:43Z</time>
      </trkpt>
      <trkpt lat="44.55444" lon="2.56284">
        <ele>520</ele>
        <time>2021-11-03T14:28:15Z</time>
      </trkpt>
      <trkpt lat="44.55409" lon="2.56381">
        <ele>533</ele>
        <time>2021-11-03T14:28:33Z</time>
      </trkpt>
      <trkpt lat="44.55496" lon="2.564">
        <ele>516</ele>
        <time>2021-11-03T14:28:53Z</time>
      </trkpt>
      <trkpt lat="44.55536" lon="2.56533">
        <ele>521</ele>
        <time>2021-11-03T14:29:17Z</time>
      </trkpt>
      <trkpt lat="44.55545" lon="2.56687">
        <ele>526</ele>
        <time>2021-11-03T14:29:43Z</time>
      </trkpt>
      <trkpt lat="44.55572" lon="2.56516">
        <ele>513</ele>
        <time>2021-11-03T14:30:12Z</time>
      </trkpt>
      <trkpt lat="44.55572" lon="2.5643">
        <ele>516</ele>
        <time>2021-11-03T14:30:27Z</time>
      </trkpt>
      <trkpt lat="44.55551" lon="2.5634">
        <ele>514</ele>
        <time>2021-11-03T14:30:42Z</time>
      </trkpt>
      <trkpt lat="44.55575" lon="2.56233">
        <ele>513</ele>
        <time>2021-11-03T14:31:01Z</time>
      </trkpt>
      <trkpt lat="44.55563" lon="2.56123">
        <ele>512</ele>
        <time>2021-11-03T14:31:19Z</time>
      </trkpt>
      <trkpt lat="44.55543" lon="2.55999">
        <ele>503</ele>
        <time>2021-11-03T14:31:41Z</time>
      </trkpt>
      <trkpt lat="44.55637" lon="2.56072">
        <ele>522</ele>
        <time>2021-11-03T14:32:06Z</time>
      </trkpt>
      <trkpt lat="44.55667" lon="2.5611">
        <ele>523</ele>
        <time>2021-11-03T14:32:15Z</time>
      </trkpt>
      <trkpt lat="44.55754" lon="2.56136">
        <ele>523</ele>
        <time>2021-11-03T14:32:36Z</time>
      </trkpt>
      <trkpt lat="44.55808" lon="2.56063">
        <ele>524</ele>
        <time>2021-11-03T14:32:53Z</time>
      </trkpt>
      <trkpt lat="44.55831" lon="2.55986">
        <ele>523</ele>
        <time>2021-11-03T14:33:07Z</time>
      </trkpt>
      <trkpt lat="44.55794" lon="2.55932">
        <ele>528</ele>
        <time>2021-11-03T14:33:20Z</time>
      </trkpt>
      <trkpt lat="44.55765" lon="2.5584">
        <ele>526</ele>
        <time>2021-11-03T14:33:37Z</time>
      </trkpt>
      <trkpt lat="44.55808" lon="2.55683">
        <ele>522</ele>
        <time>2021-11-03T14:34:05Z</time>
      </trkpt>
      <trkpt lat="44.5589" lon="2.55608">
        <ele>525</ele>
        <time>2021-11-03T14:34:27Z</time>
      </trkpt>
      <trkpt lat="44.55823" lon="2.55512">
        <ele>529</ele>
        <time>2021-11-03T14:34:50Z</time>
      </trkpt>
      <trkpt lat="44.55754" lon="2.55327">
        <ele>540</ele>
        <time>2021-11-03T14:35:25Z</time>
      </trkpt>
      <trkpt lat="44.55604" lon="2.55303">
        <ele>536</ele>
        <time>2021-11-03T14:36:00Z</time>
      </trkpt>
      <trkpt lat="44.55522" lon="2.55248">
        <ele>533</ele>
        <time>2021-11-03T14:36:21Z</time>
      </trkpt>
      <trkpt lat="44.55341" lon="2.55106">
        <ele>524</ele>
        <time>2021-11-03T14:37:09Z</time>
      </trkpt>
      <trkpt lat="44.55297" lon="2.55108">
        <ele>521</ele>
        <time>2021-11-03T14:37:20Z</time>
      </trkpt>
      <trkpt lat="44.55231" lon="2.5519">
        <ele>518</ele>
        <time>2021-11-03T14:37:40Z</time>
      </trkpt>
      <trkpt lat="44.55185" lon="2.55299">
        <ele>514</ele>
        <time>2021-11-03T14:38:01Z</time>
      </trkpt>
      <trkpt lat="44.55163" lon="2.55338">
        <ele>513</ele>
        <time>2021-11-03T14:38:10Z</time>
      </trkpt>
      <trkpt lat="44.55146" lon="2.55243">
        <ele>521</ele>
        <time>2021-11-03T14:38:26Z</time>
      </trkpt>
      <trkpt lat="44.55173" lon="2.55089">
        <ele>520</ele>
        <time>2021-11-03T14:38:52Z</time>
      </trkpt>
      <trkpt lat="44.55054" lon="2.55097">
        <ele>530</ele>
        <time>2021-11-03T14:39:20Z</time>
      </trkpt>
      <trkpt lat="44.54915" lon="2.5508">
        <ele>555</ele>
        <time>2021-11-03T14:39:53Z</time>
      </trkpt>
      <trkpt lat="44.5488" lon="2.5499">
        <ele>562</ele>
        <time>2021-11-03T14:40:10Z</time>
      </trkpt>
      <trkpt lat="44.54828" lon="2.54966">
        <ele>576</ele>
        <time>2021-11-03T14:40:23Z</time>
      </trkpt>
      <trkpt lat="44.54846" lon="2.54902">
        <ele>571</ele>
        <time>2021-11-03T14:40:34Z</time>
      </trkpt>
      <trkpt lat="44.54722" lon="2.55029">
        <ele>570</ele>
        <time>2021-11-03T14:41:10Z</time>
      </trkpt>
      <trkpt lat="44.54675" lon="2.54919">
        <ele>566</ele>
        <time>2021-11-03T14:41:31Z</time>
      </trkpt>
      <trkpt lat="44.54614" lon="2.54806">
        <ele>553</ele>
        <time>2021-11-03T14:41:55Z</time>
      </trkpt>
      <trkpt lat="44.5458" lon="2.5469">
        <ele>551</ele>
        <time>2021-11-03T14:42:16Z</time>
      </trkpt>
      <trkpt lat="44.54539" lon="2.54666">
        <ele>534</ele>
        <time>2021-11-03T14:42:26Z</time>
      </trkpt>
      <trkpt lat="44.54468" lon="2.54673">
        <ele>499</ele>
        <time>2021-11-03T14:42:43Z</time>
      </trkpt>
      <trkpt lat="44.54427" lon="2.5484">
        <ele>469</ele>
        <time>2021-11-03T14:43:12Z</time>
      </trkpt>
      <trkpt lat="44.5439" lon="2.5455">
        <ele>480</ele>
        <time>2021-11-03T14:44:01Z</time>
      </trkpt>
      <trkpt lat="44.54357" lon="2.5446">
        <ele>478</ele>
        <time>2021-11-03T14:44:18Z</time>
      </trkpt>
      <trkpt lat="44.54383" lon="2.54288">
        <ele>488</ele>
        <time>2021-11-03T14:44:47Z</time>
      </trkpt>
      <trkpt lat="44.54366" lon="2.54134">
        <ele>492</ele>
        <time>2021-11-03T14:45:13Z</time>
      </trkpt>
      <trkpt lat="44.54317" lon="2.54055">
        <ele>486</ele>
        <time>2021-11-03T14:45:31Z</time>
      </trkpt>
      <trkpt lat="44.54279" lon="2.54018">
        <ele>479</ele>
        <time>2021-11-03T14:45:41Z</time>
      </trkpt>
      <trkpt lat="44.54224" lon="2.53864">
        <ele>482</ele>
        <time>2021-11-03T14:46:10Z</time>
      </trkpt>
      <trkpt lat="44.54074" lon="2.53829">
        <ele>473</ele>
        <time>2021-11-03T14:46:46Z</time>
      </trkpt>
      <trkpt lat="44.53991" lon="2.53602">
        <ele>473</ele>
        <time>2021-11-03T14:47:28Z</time>
      </trkpt>
      <trkpt lat="44.53948" lon="2.53561">
        <ele>468</ele>
        <time>2021-11-03T14:47:40Z</time>
      </trkpt>
      <trkpt lat="44.53896" lon="2.53299">
        <ele>453</ele>
        <time>2021-11-03T14:48:25Z</time>
      </trkpt>
      <trkpt lat="44.53907" lon="2.53256">
        <ele>450</ele>
        <time>2021-11-03T14:48:33Z</time>
      </trkpt>
      <trkpt lat="44.53806" lon="2.5308">
        <ele>449</ele>
        <time>2021-11-03T14:49:11Z</time>
      </trkpt>
      <trkpt lat="44.53838" lon="2.5296">
        <ele>426</ele>
        <time>2021-11-03T14:49:32Z</time>
      </trkpt>
      <trkpt lat="44.53892" lon="2.529">
        <ele>419</ele>
        <time>2021-11-03T14:49:48Z</time>
      </trkpt>
      <trkpt lat="44.53947" lon="2.52849">
        <ele>410</ele>
        <time>2021-11-03T14:50:04Z</time>
      </trkpt>
      <trkpt lat="44.53974" lon="2.52934">
        <ele>408</ele>
        <time>2021-11-03T14:50:19Z</time>
      </trkpt>
      <trkpt lat="44.53909" lon="2.52977">
        <ele>418</ele>
        <time>2021-11-03T14:50:36Z</time>
      </trkpt>
      <trkpt lat="44.53886" lon="2.53029">
        <ele>423</ele>
        <time>2021-11-03T14:50:46Z</time>
      </trkpt>
      <trkpt lat="44.53959" lon="2.53074">
        <ele>407</ele>
        <time>2021-11-03T14:51:05Z</time>
      </trkpt>
      <trkpt lat="44.54014" lon="2.53216">
        <ele>406</ele>
        <time>2021-11-03T14:51:31Z</time>
      </trkpt>
      <trkpt lat="44.54058" lon="2.53198">
        <ele>401</ele>
        <time>2021-11-03T14:51:42Z</time>
      </trkpt>
      <trkpt lat="44.541" lon="2.53087">
        <ele>396</ele>
        <time>2021-11-03T14:52:03Z</time>
      </trkpt>
      <trkpt lat="44.54153" lon="2.53104">
        <ele>405</ele>
        <time>2021-11-03T14:52:16Z</time>
      </trkpt>
      <trkpt lat="44.54224" lon="2.53085">
        <ele>418</ele>
        <time>2021-11-03T14:52:33Z</time>
      </trkpt>
      <trkpt lat="44.54251" lon="2.53048">
        <ele>429</ele>
        <time>2021-11-03T14:52:41Z</time>
      </trkpt>
      <trkpt lat="44.5428" lon="2.52997">
        <ele>447</ele>
        <time>2021-11-03T14:52:52Z</time>
      </trkpt>
      <trkpt lat="44.54253" lon="2.52919">
        <ele>459</ele>
        <time>2021-11-03T14:53:07Z</time>
      </trkpt>
      <trkpt lat="44.54308" lon="2.52868">
        <ele>485</ele>
        <time>2021-11-03T14:53:22Z</time>
      </trkpt>
      <trkpt lat="44.54361" lon="2.5278">
        <ele>507</ele>
        <time>2021-11-03T14:53:41Z</time>
      </trkpt>
      <trkpt lat="44.54373" lon="2.52754">
        <ele>511</ele>
        <time>2021-11-03T14:53:47Z</time>
      </trkpt>
      <trkpt lat="44.54435" lon="2.52716">
        <ele>522</ele>
        <time>2021-11-03T14:54:02Z</time>
      </trkpt>
      <trkpt lat="44.54491" lon="2.52746">
        <ele>537</ele>
        <time>2021-11-03T14:54:16Z</time>
      </trkpt>
      <trkpt lat="44.54505" lon="2.52838">
        <ele>536</ele>
        <time>2021-11-03T14:54:32Z</time>
      </trkpt>
      <trkpt lat="44.54571" lon="2.52814">
        <ele>566</ele>
        <time>2021-11-03T14:54:48Z</time>
      </trkpt>
      <trkpt lat="44.54603" lon="2.53007">
        <ele>563</ele>
        <time>2021-11-03T14:55:21Z</time>
      </trkpt>
      <trkpt lat="44.5463" lon="2.53083">
        <ele>568</ele>
        <time>2021-11-03T14:55:35Z</time>
      </trkpt>
      <trkpt lat="44.54678" lon="2.53192">
        <ele>573</ele>
        <time>2021-11-03T14:55:56Z</time>
      </trkpt>
      <trkpt lat="44.54692" lon="2.53209">
        <ele>572</ele>
        <time>2021-11-03T14:56:01Z</time>
      </trkpt>
      <trkpt lat="44.54721" lon="2.53258">
        <ele>571</ele>
        <time>2021-11-03T14:56:11Z</time>
      </trkpt>
      <trkpt lat="44.5472" lon="2.53334">
        <ele>571</ele>
        <time>2021-11-03T14:56:24Z</time>
      </trkpt>
      <trkpt lat="44.54652" lon="2.53333">
        <ele>560</ele>
        <time>2021-11-03T14:56:40Z</time>
      </trkpt>
      <trkpt lat="44.54577" lon="2.53358">
        <ele>549</ele>
        <time>2021-11-03T14:56:58Z</time>
      </trkpt>
      <trkpt lat="44.54529" lon="2.53393">
        <ele>541</ele>
        <time>2021-11-03T14:57:10Z</time>
      </trkpt>
      <trkpt lat="44.54524" lon="2.53361">
        <ele>534</ele>
        <time>2021-11-03T14:57:16Z</time>
      </trkpt>
      <trkpt lat="44.54475" lon="2.53432">
        <ele>531</ele>
        <time>2021-11-03T14:57:32Z</time>
      </trkpt>
      <trkpt lat="44.54375" lon="2.53467">
        <ele>503</ele>
        <time>2021-11-03T14:57:56Z</time>
      </trkpt>
      <trkpt lat="44.54434" lon="2.53508">
        <ele>513</ele>
        <time>2021-11-03T14:58:12Z</time>
      </trkpt>
      <trkpt lat="44.54451" lon="2.5364">
        <ele>510</ele>
        <time>2021-11-03T14:58:34Z</time>
      </trkpt>
      <trkpt lat="44.5435" lon="2.53712">
        <ele>490</ele>
        <time>2021-11-03T14:59:01Z</time>
      </trkpt>
      <trkpt lat="44.54336" lon="2.53781">
        <ele>500</ele>
        <time>2021-11-03T14:59:12Z</time>
      </trkpt>
      <trkpt lat="44.54248" lon="2.53825">
        <ele>486</ele>
        <time>2021-11-03T14:59:34Z</time>
      </trkpt>
      <trkpt lat="44.5421" lon="2.53858">
        <ele>480</ele>
        <time>2021-11-03T14:59:45Z</time>
      </trkpt>
      <trkpt lat="44.54276" lon="2.53992">
        <ele>482</ele>
        <time>2021-11-03T15:00:12Z</time>
      </trkpt>
      <trkpt lat="44.5435" lon="2.5404">
        <ele>499</ele>
        <time>2021-11-03T15:00:31Z</time>
      </trkpt>
      <trkpt lat="44.54365" lon="2.54212">
        <ele>485</ele>
        <time>2021-11-03T15:01:00Z</time>
      </trkpt>
      <trkpt lat="44.54374" lon="2.54387">
        <ele>484</ele>
        <time>2021-11-03T15:01:29Z</time>
      </trkpt>
      <trkpt lat="44.54353" lon="2.54426">
        <ele>478</ele>
        <time>2021-11-03T15:01:37Z</time>
      </trkpt>
      <trkpt lat="44.54354" lon="2.545">
        <ele>475</ele>
        <time>2021-11-03T15:01:49Z</time>
      </trkpt>
      <trkpt lat="44.54398" lon="2.54596">
        <ele>478</ele>
        <time>2021-11-03T15:02:08Z</time>
      </trkpt>
      <trkpt lat="44.54422" lon="2.54772">
        <ele>471</ele>
        <time>2021-11-03T15:02:38Z</time>
      </trkpt>
      <trkpt lat="44.54453" lon="2.54952">
        <ele>460</ele>
        <time>2021-11-03T15:03:09Z</time>
      </trkpt>
      <trkpt lat="44.54436" lon="2.55035">
        <ele>448</ele>
        <time>2021-11-03T15:03:23Z</time>
      </trkpt>
      <trkpt lat="44.54392" lon="2.55142">
        <ele>434</ele>
        <time>2021-11-03T15:03:44Z</time>
      </trkpt>
      <trkpt lat="44.54384" lon="2.55226">
        <ele>435</ele>
        <time>2021-11-03T15:03:58Z</time>
      </trkpt>
      <trkpt lat="44.54372" lon="2.55263">
        <ele>430</ele>
        <time>2021-11-03T15:04:05Z</time>
      </trkpt>
      <trkpt lat="44.54377" lon="2.55341">
        <ele>430</ele>
        <time>2021-11-03T15:04:18Z</time>
      </trkpt>
      <trkpt lat="44.5431" lon="2.55347">
        <ele>409</ele>
        <time>2021-11-03T15:04:34Z</time>
      </trkpt>
      <trkpt lat="44.54268" lon="2.5542">
        <ele>406</ele>
        <time>2021-11-03T15:04:49Z</time>
      </trkpt>
      <trkpt lat="44.54228" lon="2.55435">
        <ele>400</ele>
        <time>2021-11-03T15:04:59Z</time>
      </trkpt>
      <trkpt lat="44.54246" lon="2.55488">
        <ele>408</ele>
        <time>2021-11-03T15:05:09Z</time>
      </trkpt>
      <trkpt lat="44.54309" lon="2.55638">
        <ele>425</ele>
        <time>2021-11-03T15:05:38Z</time>
      </trkpt>
      <trkpt lat="44.54296" lon="2.5578">
        <ele>424</ele>
        <time>2021-11-03T15:06:01Z</time>
      </trkpt>
      <trkpt lat="44.54295" lon="2.55844">
        <ele>420</ele>
        <time>2021-11-03T15:06:12Z</time>
      </trkpt>
      <trkpt lat="44.54267" lon="2.55885">
        <ele>408</ele>
        <time>2021-11-03T15:06:22Z</time>
      </trkpt>
      <trkpt lat="44.54261" lon="2.55982">
        <ele>402</ele>
        <time>2021-11-03T15:06:38Z</time>
      </trkpt>
      <trkpt lat="44.54321" lon="2.55948">
        <ele>412</ele>
        <time>2021-11-03T15:06:53Z</time>
      </trkpt>
      <trkpt lat="44.54336" lon="2.55989">
        <ele>400</ele>
        <time>2021-11-03T15:07:01Z</time>
      </trkpt>
      <trkpt lat="44.54376" lon="2.55994">
        <ele>397</ele>
        <time>2021-11-03T15:07:10Z</time>
      </trkpt>
      <trkpt lat="44.54401" lon="2.55959">
        <ele>407</ele>
        <time>2021-11-03T15:07:18Z</time>
      </trkpt>
      <trkpt lat="44.54449" lon="2.55987">
        <ele>403</ele>
        <time>2021-11-03T15:07:30Z</time>
      </trkpt>
      <trkpt lat="44.54455" lon="2.56063">
        <ele>382</ele>
        <time>2021-11-03T15:07:43Z</time>
      </trkpt>
      <trkpt lat="44.54533" lon="2.56058">
        <ele>382</ele>
        <time>2021-11-03T15:08:01Z</time>
      </trkpt>
      <trkpt lat="44.54595" lon="2.5601">
        <ele>389</ele>
        <time>2021-11-03T15:08:18Z</time>
      </trkpt>
      <trkpt lat="44.54646" lon="2.56008">
        <ele>386</ele>
        <time>2021-11-03T15:08:30Z</time>
      </trkpt>
      <trkpt lat="44.54669" lon="2.56027">
        <ele>377</ele>
        <time>2021-11-03T15:08:36Z</time>
      </trkpt>
      <trkpt lat="44.54732" lon="2.55976">
        <ele>382</ele>
        <time>2021-11-03T15:08:53Z</time>
      </trkpt>
      <trkpt lat="44.54773" lon="2.55957">
        <ele>380</ele>
        <time>2021-11-03T15:09:03Z</time>
      </trkpt>
      <trkpt lat="44.54674" lon="2.56077">
        <ele>356</ele>
        <time>2021-11-03T15:09:34Z</time>
      </trkpt>
      <trkpt lat="44.54566" lon="2.56117">
        <ele>357</ele>
        <time>2021-11-03T15:10:00Z</time>
      </trkpt>
      <trkpt lat="44.54512" lon="2.56152">
        <ele>350</ele>
        <time>2021-11-03T15:10:14Z</time>
      </trkpt>
      <trkpt lat="44.54426" lon="2.56178">
        <ele>343</ele>
        <time>2021-11-03T15:10:34Z</time>
      </trkpt>
      <trkpt lat="44.54374" lon="2.56173">
        <ele>344</ele>
        <time>2021-11-03T15:10:46Z</time>
      </trkpt>
      <trkpt lat="44.54332" lon="2.56233">
        <ele>329</ele>
        <time>2021-11-03T15:11:00Z</time>
      </trkpt>
      <trkpt lat="44.54315" lon="2.5622">
        <ele>332</ele>
        <time>2021-11-03T15:11:05Z</time>
      </trkpt>
      <trkpt lat="44.54279" lon="2.56221">
        <ele>331</ele>
        <time>2021-11-03T15:11:13Z</time>
      </trkpt>
      <trkpt lat="44.54184" lon="2.5621">
        <ele>333</ele>
        <time>2021-11-03T15:11:35Z</time>
      </trkpt>
      <trkpt lat="44.54045" lon="2.56257">
        <ele>312</ele>
        <time>2021-11-03T15:12:09Z</time>
      </trkpt>
      <trkpt lat="44.53952" lon="2.56386">
        <ele>314</ele>
        <time>2021-11-03T15:12:39Z</time>
      </trkpt>
      <trkpt lat="44.53927" lon="2.56339">
        <ele>305</ele>
        <time>2021-11-03T15:12:49Z</time>
      </trkpt>
      <trkpt lat="44.53896" lon="2.56252">
        <ele>306</ele>
        <time>2021-11-03T15:13:05Z</time>
      </trkpt>
      <trkpt lat="44.53872" lon="2.56231">
        <ele>313</ele>
        <time>2021-11-03T15:13:12Z</time>
      </trkpt>
      <trkpt lat="44.53855" lon="2.5618">
        <ele>314</ele>
        <time>2021-11-03T15:13:21Z</time>
      </trkpt>
      <trkpt lat="44.53678" lon="2.55825">
        <ele>331</ele>
        <time>2021-11-03T15:14:33Z</time>
      </trkpt>
      <trkpt lat="44.53653" lon="2.55745">
        <ele>320</ele>
        <time>2021-11-03T15:14:48Z</time>
      </trkpt>
      <trkpt lat="44.53595" lon="2.55702">
        <ele>331</ele>
        <time>2021-11-03T15:15:03Z</time>
      </trkpt>
      <trkpt lat="44.53547" lon="2.55711">
        <ele>343</ele>
        <time>2021-11-03T15:15:15Z</time>
      </trkpt>
      <trkpt lat="44.53599" lon="2.55612">
        <ele>334</ele>
        <time>2021-11-03T15:15:35Z</time>
      </trkpt>
      <trkpt lat="44.53571" lon="2.55415">
        <ele>341</ele>
        <time>2021-11-03T15:16:08Z</time>
      </trkpt>
      <trkpt lat="44.53532" lon="2.55393">
        <ele>362</ele>
        <time>2021-11-03T15:16:18Z</time>
      </trkpt>
      <trkpt lat="44.53549" lon="2.55285">
        <ele>351</ele>
        <time>2021-11-03T15:16:37Z</time>
      </trkpt>
      <trkpt lat="44.5354" lon="2.55184">
        <ele>351</ele>
        <time>2021-11-03T15:16:54Z</time>
      </trkpt>
      <trkpt lat="44.53494" lon="2.55364">
        <ele>379</ele>
        <time>2021-11-03T15:17:25Z</time>
      </trkpt>
      <trkpt lat="44.53454" lon="2.55453">
        <ele>397</ele>
        <time>2021-11-03T15:17:43Z</time>
      </trkpt>
      <trkpt lat="44.53466" lon="2.55536">
        <ele>393</ele>
        <time>2021-11-03T15:17:57Z</time>
      </trkpt>
      <trkpt lat="44.53423" lon="2.5555">
        <ele>402</ele>
        <time>2021-11-03T15:18:07Z</time>
      </trkpt>
      <trkpt lat="44.53314" lon="2.55502">
        <ele>415</ele>
        <time>2021-11-03T15:18:34Z</time>
      </trkpt>
      <trkpt lat="44.53372" lon="2.55462">
        <ele>415</ele>
        <time>2021-11-03T15:18:49Z</time>
      </trkpt>
      <trkpt lat="44.53172" lon="2.55397">
        <ele>433</ele>
        <time>2021-11-03T15:19:37Z</time>
      </trkpt>
      <trkpt lat="44.53126" lon="2.55319">
        <ele>438</ele>
        <time>2021-11-03T15:19:54Z</time>
      </trkpt>
      <trkpt lat="44.53053" lon="2.55256">
        <ele>435</ele>
        <time>2021-11-03T15:20:14Z</time>
      </trkpt>
      <trkpt lat="44.53039" lon="2.54893">
        <ele>425</ele>
        <time>2021-11-03T15:21:15Z</time>
      </trkpt>
      <trkpt lat="44.53046" lon="2.54816">
        <ele>425</ele>
        <time>2021-11-03T15:21:27Z</time>
      </trkpt>
      <trkpt lat="44.53018" lon="2.54664">
        <ele>427</ele>
        <time>2021-11-03T15:21:54Z</time>
      </trkpt>
      <trkpt lat="44.52948" lon="2.54574">
        <ele>422</ele>
        <time>2021-11-03T15:22:16Z</time>
      </trkpt>
      <trkpt lat="44.52948" lon="2.545">
        <ele>421</ele>
        <time>2021-11-03T15:22:28Z</time>
      </trkpt>
      <trkpt lat="44.52883" lon="2.5439">
        <ele>419</ele>
        <time>2021-11-03T15:22:52Z</time>
      </trkpt>
      <trkpt lat="44.52819" lon="2.5422">
        <ele>413</ele>
        <time>2021-11-03T15:23:24Z</time>
      </trkpt>
      <trkpt lat="44.5282" lon="2.54137">
        <ele>408</ele>
        <time>2021-11-03T15:23:38Z</time>
      </trkpt>
      <trkpt lat="44.52777" lon="2.54004">
        <ele>405</ele>
        <time>2021-11-03T15:24:02Z</time>
      </trkpt>
      <trkpt lat="44.52645" lon="2.54">
        <ele>406</ele>
        <time>2021-11-03T15:24:33Z</time>
      </trkpt>
      <trkpt lat="44.52509" lon="2.5395">
        <ele>403</ele>
        <time>2021-11-03T15:25:06Z</time>
      </trkpt>
      <trkpt lat="44.52457" lon="2.53908">
        <ele>407</ele>
        <time>2021-11-03T15:25:20Z</time>
      </trkpt>
      <trkpt lat="44.52425" lon="2.53777">
        <ele>404</ele>
        <time>2021-11-03T15:25:43Z</time>
      </trkpt>
      <trkpt lat="44.52339" lon="2.53825">
        <ele>400</ele>
        <time>2021-11-03T15:26:04Z</time>
      </trkpt>
      <trkpt lat="44.52246" lon="2.53735">
        <ele>389</ele>
        <time>2021-11-03T15:26:31Z</time>
      </trkpt>
      <trkpt lat="44.52099" lon="2.53605">
        <ele>376</ele>
        <time>2021-11-03T15:27:11Z</time>
      </trkpt>
      <trkpt lat="44.52126" lon="2.53571">
        <ele>381</ele>
        <time>2021-11-03T15:27:20Z</time>
      </trkpt>
      <trkpt lat="44.52021" lon="2.5349">
        <ele>371</ele>
        <time>2021-11-03T15:27:48Z</time>
      </trkpt>
      <trkpt lat="44.51834" lon="2.53387">
        <ele>344</ele>
        <time>2021-11-03T15:28:35Z</time>
      </trkpt>
      <trkpt lat="44.51786" lon="2.53464">
        <ele>332</ele>
        <time>2021-11-03T15:28:52Z</time>
      </trkpt>
      <trkpt lat="44.51768" lon="2.53538">
        <ele>327</ele>
        <time>2021-11-03T15:29:05Z</time>
      </trkpt>
      <trkpt lat="44.5175" lon="2.53627">
        <ele>328</ele>
        <time>2021-11-03T15:29:20Z</time>
      </trkpt>
      <trkpt lat="44.51728" lon="2.53558">
        <ele>323</ele>
        <time>2021-11-03T15:29:33Z</time>
      </trkpt>
      <trkpt lat="44.51667" lon="2.53519">
        <ele>320</ele>
        <time>2021-11-03T15:29:48Z</time>
      </trkpt>
      <trkpt lat="44.51692" lon="2.5341">
        <ele>327</ele>
        <time>2021-11-03T15:30:07Z</time>
      </trkpt>
      <trkpt lat="44.51702" lon="2.53277">
        <ele>327</ele>
        <time>2021-11-03T15:30:30Z</time>
      </trkpt>
      <trkpt lat="44.51666" lon="2.5339">
        <ele>331</ele>
        <time>2021-11-03T15:30:50Z</time>
      </trkpt>
      <trkpt lat="44.51647" lon="2.53408">
        <ele>331</ele>
        <time>2021-11-03T15:30:56Z</time>
      </trkpt>
      <trkpt lat="44.51598" lon="2.53331">
        <ele>342</ele>
        <time>2021-11-03T15:31:13Z</time>
      </trkpt>
      <trkpt lat="44.51481" lon="2.53257">
        <ele>349</ele>
        <time>2021-11-03T15:31:43Z</time>
      </trkpt>
      <trkpt lat="44.51394" lon="2.5339">
        <ele>357</ele>
        <time>2021-11-03T15:32:13Z</time>
      </trkpt>
      <trkpt lat="44.51298" lon="2.53414">
        <ele>358</ele>
        <time>2021-11-03T15:32:36Z</time>
      </trkpt>
      <trkpt lat="44.51226" lon="2.53405">
        <ele>358</ele>
        <time>2021-11-03T15:32:53Z</time>
      </trkpt>
      <trkpt lat="44.51118" lon="2.53506">
        <ele>357</ele>
        <time>2021-11-03T15:33:23Z</time>
      </trkpt>
      <trkpt lat="44.51181" lon="2.53602">
        <ele>351</ele>
        <time>2021-11-03T15:33:45Z</time>
      </trkpt>
      <trkpt lat="44.51165" lon="2.53685">
        <ele>353</ele>
        <time>2021-11-03T15:33:59Z</time>
      </trkpt>
      <trkpt lat="44.51213" lon="2.53739">
        <ele>351</ele>
        <time>2021-11-03T15:34:13Z</time>
      </trkpt>
      <trkpt lat="44.51246" lon="2.53827">
        <ele>350</ele>
        <time>2021-11-03T15:34:30Z</time>
      </trkpt>
      <trkpt lat="44.51127" lon="2.53939">
        <ele>362</ele>
        <time>2021-11-03T15:35:03Z</time>
      </trkpt>
      <trkpt lat="44.51091" lon="2.53915">
        <ele>368</ele>
        <time>2021-11-03T15:35:13Z</time>
      </trkpt>
      <trkpt lat="44.51078" lon="2.53861">
        <ele>368</ele>
        <time>2021-11-03T15:35:22Z</time>
      </trkpt>
      <trkpt lat="44.50916" lon="2.53874">
        <ele>383</ele>
        <time>2021-11-03T15:36:00Z</time>
      </trkpt>
      <trkpt lat="44.50845" lon="2.53795">
        <ele>390</ele>
        <time>2021-11-03T15:36:21Z</time>
      </trkpt>
      <trkpt lat="44.50899" lon="2.53697">
        <ele>386</ele>
        <time>2021-11-03T15:36:42Z</time>
      </trkpt>
      <trkpt lat="44.50786" lon="2.53704">
        <ele>394</ele>
        <time>2021-11-03T15:37:08Z</time>
      </trkpt>
      <trkpt lat="44.50729" lon="2.5376">
        <ele>402</ele>
        <time>2021-11-03T15:37:24Z</time>
      </trkpt>
      <trkpt lat="44.50684" lon="2.53887">
        <ele>418</ele>
        <time>2021-11-03T15:37:48Z</time>
      </trkpt>
      <trkpt lat="44.50703" lon="2.54022">
        <ele>435</ele>
        <time>2021-11-03T15:38:11Z</time>
      </trkpt>
      <trkpt lat="44.50748" lon="2.54121">
        <ele>437</ele>
        <time>2021-11-03T15:38:31Z</time>
      </trkpt>
      <trkpt lat="44.50642" lon="2.54101">
        <ele>449</ele>
        <time>2021-11-03T15:38:56Z</time>
      </trkpt>
      <trkpt lat="44.50597" lon="2.54258">
        <ele>461</ele>
        <time>2021-11-03T15:39:24Z</time>
      </trkpt>
      <trkpt lat="44.50552" lon="2.54022">
        <ele>466</ele>
        <time>2021-11-03T15:40:04Z</time>
      </trkpt>
      <trkpt lat="44.50486" lon="2.54069">
        <ele>480</ele>
        <time>2021-11-03T15:40:22Z</time>
      </trkpt>
      <trkpt lat="44.50514" lon="2.54145">
        <ele>486</ele>
        <time>2021-11-03T15:40:36Z</time>
      </trkpt>
      <trkpt lat="44.50463" lon="2.54253">
        <ele>505</ele>
        <time>2021-11-03T15:40:58Z</time>
      </trkpt>
      <trkpt lat="44.5042" lon="2.54336">
        <ele>522</ele>
        <time>2021-11-03T15:41:15Z</time>
      </trkpt>
      <trkpt lat="44.50353" lon="2.54379">
        <ele>549</ele>
        <time>2021-11-03T15:41:32Z</time>
      </trkpt>
      <trkpt lat="44.50266" lon="2.54552">
        <ele>573</ele>
        <time>2021-11-03T15:42:07Z</time>
      </trkpt>
      <trkpt lat="44.50253" lon="2.54634">
        <ele>580</ele>
        <time>2021-11-03T15:42:21Z</time>
      </trkpt>
      <trkpt lat="44.50252" lon="2.54736">
        <ele>587</ele>
        <time>2021-11-03T15:42:38Z</time>
      </trkpt>
      <trkpt lat="44.50221" lon="2.54637">
        <ele>582</ele>
        <time>2021-11-03T15:42:56Z</time>
      </trkpt>
      <trkpt lat="44.50216" lon="2.54486">
        <ele>582</ele>
        <time>2021-11-03T15:43:21Z</time>
      </trkpt>
      <trkpt lat="44.5023" lon="2.54244">
        <ele>582</ele>
        <time>2021-11-03T15:44:02Z</time>
      </trkpt>
      <trkpt lat="44.50195" lon="2.54168">
        <ele>583</ele>
        <time>2021-11-03T15:44:17Z</time>
      </trkpt>
      <trkpt lat="44.50164" lon="2.53953">
        <ele>587</ele>
        <time>2021-11-03T15:44:53Z</time>
      </trkpt>
      <trkpt lat="44.50119" lon="2.53782">
        <ele>580</ele>
        <time>2021-11-03T15:45:24Z</time>
      </trkpt>
      <trkpt lat="44.50111" lon="2.53654">
        <ele>580</ele>
        <time>2021-11-03T15:45:45Z</time>
      </trkpt>
      <trkpt lat="44.50149" lon="2.53491">
        <ele>574</ele>
        <time>2021-11-03T15:46:14Z</time>
      </trkpt>
      <trkpt lat="44.50088" lon="2.53378">
        <ele>582</ele>
        <time>2021-11-03T15:46:37Z</time>
      </trkpt>
      <trkpt lat="44.50068" lon="2.53194">
        <ele>574</ele>
        <time>2021-11-03T15:47:08Z</time>
      </trkpt>
      <trkpt lat="44.50158" lon="2.52887">
        <ele>569</ele>
        <time>2021-11-03T15:48:03Z</time>
      </trkpt>
      <trkpt lat="44.50216" lon="2.52764">
        <ele>565</ele>
        <time>2021-11-03T15:48:28Z</time>
      </trkpt>
      <trkpt lat="44.50285" lon="2.52656">
        <ele>546</ele>
        <time>2021-11-03T15:48:52Z</time>
      </trkpt>
      <trkpt lat="44.50258" lon="2.52506">
        <ele>548</ele>
        <time>2021-11-03T15:49:18Z</time>
      </trkpt>
      <trkpt lat="44.50292" lon="2.52201">
        <ele>542</ele>
        <time>2021-11-03T15:50:09Z</time>
      </trkpt>
      <trkpt lat="44.50391" lon="2.52117">
        <ele>509</ele>
        <time>2021-11-03T15:50:36Z</time>
      </trkpt>
      <trkpt lat="44.50365" lon="2.52005">
        <ele>519</ele>
        <time>2021-11-03T15:50:56Z</time>
      </trkpt>
      <trkpt lat="44.50406" lon="2.51922">
        <ele>505</ele>
        <time>2021-11-03T15:51:13Z</time>
      </trkpt>
      <trkpt lat="44.5041" lon="2.5181">
        <ele>504</ele>
        <time>2021-11-03T15:51:32Z</time>
      </trkpt>
      <trkpt lat="44.50434" lon="2.51774">
        <ele>488</ele>
        <time>2021-11-03T15:51:40Z</time>
      </trkpt>
      <trkpt lat="44.50409" lon="2.517">
        <ele>492</ele>
        <time>2021-11-03T15:51:53Z</time>
      </trkpt>
      <trkpt lat="44.50406" lon="2.51582">
        <ele>481</ele>
        <time>2021-11-03T15:52:13Z</time>
      </trkpt>
      <trkpt lat="44.5038" lon="2.51528">
        <ele>495</ele>
        <time>2021-11-03T15:52:24Z</time>
      </trkpt>
      <trkpt lat="44.50436" lon="2.5144">
        <ele>470</ele>
        <time>2021-11-03T15:52:44Z</time>
      </trkpt>
      <trkpt lat="44.5041" lon="2.51301">
        <ele>482</ele>
        <time>2021-11-03T15:53:07Z</time>
      </trkpt>
      <trkpt lat="44.5042" lon="2.50988">
        <ele>476</ele>
        <time>2021-11-03T15:54:00Z</time>
      </trkpt>
      <trkpt lat="44.5046" lon="2.50748">
        <ele>473</ele>
        <time>2021-11-03T15:54:41Z</time>
      </trkpt>
      <trkpt lat="44.50504" lon="2.50544">
        <ele>456</ele>
        <time>2021-11-03T15:55:16Z</time>
      </trkpt>
      <trkpt lat="44.50456" lon="2.50385">
        <ele>458</ele>
        <time>2021-11-03T15:55:45Z</time>
      </trkpt>
      <trkpt lat="44.50469" lon="2.50253">
        <ele>443</ele>
        <time>2021-11-03T15:56:07Z</time>
      </trkpt>
      <trkpt lat="44.50389" lon="2.50204">
        <ele>474</ele>
        <time>2021-11-03T15:56:28Z</time>
      </trkpt>
      <trkpt lat="44.50424" lon="2.50148">
        <ele>459</ele>
        <time>2021-11-03T15:56:40Z</time>
      </trkpt>
      <trkpt lat="44.5036" lon="2.49975">
        <ele>492</ele>
        <time>2021-11-03T15:57:12Z</time>
      </trkpt>
      <trkpt lat="44.50431" lon="2.49901">
        <ele>481</ele>
        <time>2021-11-03T15:57:33Z</time>
      </trkpt>
      <trkpt lat="44.5044" lon="2.49816">
        <ele>498</ele>
        <time>2021-11-03T15:57:47Z</time>
      </trkpt>
      <trkpt lat="44.50562" lon="2.49691">
        <ele>483</ele>
        <time>2021-11-03T15:58:23Z</time>
      </trkpt>
      <trkpt lat="44.50385" lon="2.49577">
        <ele>492</ele>
        <time>2021-11-03T15:59:08Z</time>
      </trkpt>
      <trkpt lat="44.50375" lon="2.49477">
        <ele>491</ele>
        <time>2021-11-03T15:59:25Z</time>
      </trkpt>
      <trkpt lat="44.50435" lon="2.49446">
        <ele>474</ele>
        <time>2021-11-03T15:59:40Z</time>
      </trkpt>
      <trkpt lat="44.50571" lon="2.49347">
        <ele>454</ele>
        <time>2021-11-03T16:00:16Z</time>
      </trkpt>
      <trkpt lat="44.50542" lon="2.49281">
        <ele>450</ele>
        <time>2021-11-03T16:00:29Z</time>
      </trkpt>
      <trkpt lat="44.50415" lon="2.49212">
        <ele>452</ele>
        <time>2021-11-03T16:01:00Z</time>
      </trkpt>
      <trkpt lat="44.50345" lon="2.49115">
        <ele>456</ele>
        <time>2021-11-03T16:01:23Z</time>
      </trkpt>
      <trkpt lat="44.50376" lon="2.49025">
        <ele>460</ele>
        <time>2021-11-03T16:01:40Z</time>
      </trkpt>
      <trkpt lat="44.50549" lon="2.48893">
        <ele>460</ele>
        <time>2021-11-03T16:02:26Z</time>
      </trkpt>
      <trkpt lat="44.50608" lon="2.48831">
        <ele>460</ele>
        <time>2021-11-03T16:02:43Z</time>
      </trkpt>
      <trkpt lat="44.50615" lon="2.48775">
        <ele>458</ele>
        <time>2021-11-03T16:02:53Z</time>
      </trkpt>
      <trkpt lat="44.5058" lon="2.48732">
        <ele>471</ele>
        <time>2021-11-03T16:03:04Z</time>
      </trkpt>
      <trkpt lat="44.50609" lon="2.48689">
        <ele>462</ele>
        <time>2021-11-03T16:03:13Z</time>
      </trkpt>
      <trkpt lat="44.50611" lon="2.48638">
        <ele>467</ele>
        <time>2021-11-03T16:03:22Z</time>
      </trkpt>
      <trkpt lat="44.50686" lon="2.48576">
        <ele>457</ele>
        <time>2021-11-03T16:03:42Z</time>
      </trkpt>
      <trkpt lat="44.50662" lon="2.48439">
        <ele>472</ele>
        <time>2021-11-03T16:04:06Z</time>
      </trkpt>
      <trkpt lat="44.50646" lon="2.48405">
        <ele>476</ele>
        <time>2021-11-03T16:04:13Z</time>
      </trkpt>
      <trkpt lat="44.50644" lon="2.4827">
        <ele>476</ele>
        <time>2021-11-03T16:04:35Z</time>
      </trkpt>
      <trkpt lat="44.50629" lon="2.48122">
        <ele>469</ele>
        <time>2021-11-03T16:05:00Z</time>
      </trkpt>
      <trkpt lat="44.50593" lon="2.48089">
        <ele>471</ele>
        <time>2021-11-03T16:05:10Z</time>
      </trkpt>
      <trkpt lat="44.50529" lon="2.48135">
        <ele>482</ele>
        <time>2021-11-03T16:05:27Z</time>
      </trkpt>
      <trkpt lat="44.50506" lon="2.48112">
        <ele>479</ele>
        <time>2021-11-03T16:05:33Z</time>
      </trkpt>
      <trkpt lat="44.50458" lon="2.48104">
        <ele>485</ele>
        <time>2021-11-03T16:05:45Z</time>
      </trkpt>
      <trkpt lat="44.50395" lon="2.48086">
        <ele>495</ele>
        <time>2021-11-03T16:06:00Z</time>
      </trkpt>
      <trkpt lat="44.50325" lon="2.48007">
        <ele>502</ele>
        <time>2021-11-03T16:06:21Z</time>
      </trkpt>
      <trkpt lat="44.50185" lon="2.47867">
        <ele>501</ele>
        <time>2021-11-03T16:07:01Z</time>
      </trkpt>
      <trkpt lat="44.50056" lon="2.48086">
        <ele>500</ele>
        <time>2021-11-03T16:07:48Z</time>
      </trkpt>
      <trkpt lat="44.49954" lon="2.48094">
        <ele>492</ele>
        <time>2021-11-03T16:08:12Z</time>
      </trkpt>
      <trkpt lat="44.49859" lon="2.48056">
        <ele>470</ele>
        <time>2021-11-03T16:08:35Z</time>
      </trkpt>
      <trkpt lat="44.49738" lon="2.48142">
        <ele>468</ele>
        <time>2021-11-03T16:09:07Z</time>
      </trkpt>
      <trkpt lat="44.49543" lon="2.48076">
        <ele>450</ele>
        <time>2021-11-03T16:09:54Z</time>
      </trkpt>
      <trkpt lat="44.49394" lon="2.48132">
        <ele>459</ele>
        <time>2021-11-03T16:10:30Z</time>
      </trkpt>
      <trkpt lat="44.49323" lon="2.48125">
        <ele>461</ele>
        <time>2021-11-03T16:10:46Z</time>
      </trkpt>
      <trkpt lat="44.49153" lon="2.48094">
        <ele>452</ele>
        <time>2021-11-03T16:11:26Z</time>
      </trkpt>
      <trkpt lat="44.49073" lon="2.48178">
        <ele>458</ele>
        <time>2021-11-03T16:11:50Z</time>
      </trkpt>
      <trkpt lat="44.48937" lon="2.48219">
        <ele>463</ele>
        <time>2021-11-03T16:12:22Z</time>
      </trkpt>
      <trkpt lat="44.489" lon="2.48191">
        <ele>461</ele>
        <time>2021-11-03T16:12:32Z</time>
      </trkpt>
      <trkpt lat="44.48778" lon="2.4804">
        <ele>473</ele>
        <time>2021-11-03T16:13:10Z</time>
      </trkpt>
      <trkpt lat="44.48862" lon="2.48293">
        <ele>490</ele>
        <time>2021-11-03T16:13:56Z</time>
      </trkpt>
      <trkpt lat="44.49019" lon="2.48359">
        <ele>505</ele>
        <time>2021-11-03T16:14:35Z</time>
      </trkpt>
      <trkpt lat="44.49066" lon="2.48449">
        <ele>511</ele>
        <time>2021-11-03T16:14:53Z</time>
      </trkpt>
      <trkpt lat="44.4912" lon="2.48487">
        <ele>514</ele>
        <time>2021-11-03T16:15:07Z</time>
      </trkpt>
      <trkpt lat="44.49135" lon="2.48587">
        <ele>504</ele>
        <time>2021-11-03T16:15:24Z</time>
      </trkpt>
      <trkpt lat="44.49173" lon="2.48643">
        <ele>494</ele>
        <time>2021-11-03T16:15:37Z</time>
      </trkpt>
      <trkpt lat="44.49235" lon="2.4862">
        <ele>492</ele>
        <time>2021-11-03T16:15:52Z</time>
      </trkpt>
      <trkpt lat="44.49368" lon="2.48581">
        <ele>490</ele>
        <time>2021-11-03T16:16:24Z</time>
      </trkpt>
      <trkpt lat="44.49459" lon="2.4864">
        <ele>467</ele>
        <time>2021-11-03T16:16:47Z</time>
      </trkpt>
      <trkpt lat="44.49539" lon="2.48584">
        <ele>469</ele>
        <time>2021-11-03T16:17:08Z</time>
      </trkpt>
      <trkpt lat="44.49621" lon="2.485">
        <ele>476</ele>
        <time>2021-11-03T16:17:32Z</time>
      </trkpt>
      <trkpt lat="44.49728" lon="2.48467">
        <ele>487</ele>
        <time>2021-11-03T16:17:58Z</time>
      </trkpt>
      <trkpt lat="44.49794" lon="2.48505">
        <ele>489</ele>
        <time>2021-11-03T16:18:14Z</time>
      </trkpt>
      <trkpt lat="44.49765" lon="2.48627">
        <ele>474</ele>
        <time>2021-11-03T16:18:36Z</time>
      </trkpt>
      <trkpt lat="44.49807" lon="2.48719">
        <ele>491</ele>
        <time>2021-11-03T16:18:54Z</time>
      </trkpt>
      <trkpt lat="44.49781" lon="2.48796">
        <ele>482</ele>
        <time>2021-11-03T16:19:08Z</time>
      </trkpt>
      <trkpt lat="44.49883" lon="2.489">
        <ele>509</ele>
        <time>2021-11-03T16:19:37Z</time>
      </trkpt>
      <trkpt lat="44.4988" lon="2.48946">
        <ele>508</ele>
        <time>2021-11-03T16:19:45Z</time>
      </trkpt>
      <trkpt lat="44.49812" lon="2.49025">
        <ele>498</ele>
        <time>2021-11-03T16:20:06Z</time>
      </trkpt>
      <trkpt lat="44.49778" lon="2.49041">
        <ele>491</ele>
        <time>2021-11-03T16:20:14Z</time>
      </trkpt>
      <trkpt lat="44.49776" lon="2.49117">
        <ele>497</ele>
        <time>2021-11-03T16:20:27Z</time>
      </trkpt>
      <trkpt lat="44.49761" lon="2.49207">
        <ele>489</ele>
        <time>2021-11-03T16:20:42Z</time>
      </trkpt>
      <trkpt lat="44.4981" lon="2.49304">
        <ele>482</ele>
        <time>2021-11-03T16:21:02Z</time>
      </trkpt>
      <trkpt lat="44.49878" lon="2.49319">
        <ele>495</ele>
        <time>2021-11-03T16:21:18Z</time>
      </trkpt>
      <trkpt lat="44.49927" lon="2.49457">
        <ele>508</ele>
        <time>2021-11-03T16:21:44Z</time>
      </trkpt>
      <trkpt lat="44.49859" lon="2.49515">
        <ele>505</ele>
        <time>2021-11-03T16:22:02Z</time>
      </trkpt>
      <trkpt lat="44.49756" lon="2.49574">
        <ele>518</ele>
        <time>2021-11-03T16:22:28Z</time>
      </trkpt>
      <trkpt lat="44.49616" lon="2.49643">
        <ele>539</ele>
        <time>2021-11-03T16:23:03Z</time>
      </trkpt>
      <trkpt lat="44.49619" lon="2.49763">
        <ele>549</ele>
        <time>2021-11-03T16:23:23Z</time>
      </trkpt>
      <trkpt lat="44.49672" lon="2.49867">
        <ele>543</ele>
        <time>2021-11-03T16:23:44Z</time>
      </trkpt>
      <trkpt lat="44.4963" lon="2.49936">
        <ele>540</ele>
        <time>2021-11-03T16:23:59Z</time>
      </trkpt>
      <trkpt lat="44.49572" lon="2.49967">
        <ele>537</ele>
        <time>2021-11-03T16:24:14Z</time>
      </trkpt>
      <trkpt lat="44.49515" lon="2.50033">
        <ele>536</ele>
        <time>2021-11-03T16:24:31Z</time>
      </trkpt>
      <trkpt lat="44.49495" lon="2.50194">
        <ele>540</ele>
        <time>2021-11-03T16:24:58Z</time>
      </trkpt>
      <trkpt lat="44.49455" lon="2.50278">
        <ele>541</ele>
        <time>2021-11-03T16:25:15Z</time>
      </trkpt>
      <trkpt lat="44.49501" lon="2.50347">
        <ele>548</ele>
        <time>2021-11-03T16:25:31Z</time>
      </trkpt>
      <trkpt lat="44.4955" lon="2.50508">
        <ele>554</ele>
        <time>2021-11-03T16:26:00Z</time>
      </trkpt>
      <trkpt lat="44.49714" lon="2.50569">
        <ele>548</ele>
        <time>2021-11-03T16:26:40Z</time>
      </trkpt>
      <trkpt lat="44.4979" lon="2.50544">
        <ele>551</ele>
        <time>2021-11-03T16:26:58Z</time>
      </trkpt>
      <trkpt lat="44.49796" lon="2.50646">
        <ele>548</ele>
        <time>2021-11-03T16:27:15Z</time>
      </trkpt>
      <trkpt lat="44.49787" lon="2.50847">
        <ele>557</ele>
        <time>2021-11-03T16:27:49Z</time>
      </trkpt>
      <trkpt lat="44.49801" lon="2.50921">
        <ele>553</ele>
        <time>2021-11-03T16:28:01Z</time>
      </trkpt>
      <trkpt lat="44.49861" lon="2.50993">
        <ele>553</ele>
        <time>2021-11-03T16:28:20Z</time>
      </trkpt>
      <trkpt lat="44.49847" lon="2.51138">
        <ele>549</ele>
        <time>2021-11-03T16:28:44Z</time>
      </trkpt>
      <trkpt lat="44.4989" lon="2.51312">
        <ele>554</ele>
        <time>2021-11-03T16:29:15Z</time>
      </trkpt>
      <trkpt lat="44.49863" lon="2.51383">
        <ele>555</ele>
        <time>2021-11-03T16:29:28Z</time>
      </trkpt>
      <trkpt lat="44.49889" lon="2.5161">
        <ele>566</ele>
        <time>2021-11-03T16:30:07Z</time>
      </trkpt>
      <trkpt lat="44.49894" lon="2.51858">
        <ele>576</ele>
        <time>2021-11-03T16:30:48Z</time>
      </trkpt>
      <trkpt lat="44.49896" lon="2.52128">
        <ele>582</ele>
        <time>2021-11-03T16:31:33Z</time>
      </trkpt>
      <trkpt lat="44.50005" lon="2.52519">
        <ele>579</ele>
        <time>2021-11-03T16:32:43Z</time>
      </trkpt>
      <trkpt lat="44.4998" lon="2.52657">
        <ele>578</ele>
        <time>2021-11-03T16:33:06Z</time>
      </trkpt>
      <trkpt lat="44.49961" lon="2.52996">
        <ele>585</ele>
        <time>2021-11-03T16:34:03Z</time>
      </trkpt>
      <trkpt lat="44.50018" lon="2.5319">
        <ele>586</ele>
        <time>2021-11-03T16:34:38Z</time>
      </trkpt>
      <trkpt lat="44.49792" lon="2.54139">
        <ele>553</ele>
        <time>2021-11-03T16:37:25Z</time>
      </trkpt>
      <trkpt lat="44.49763" lon="2.54343">
        <ele>546</ele>
        <time>2021-11-03T16:37:59Z</time>
      </trkpt>
      <trkpt lat="44.49688" lon="2.54759">
        <ele>546</ele>
        <time>2021-11-03T16:39:11Z</time>
      </trkpt>
      <trkpt lat="44.49645" lon="2.54933">
        <ele>543</ele>
        <time>2021-11-03T16:39:42Z</time>
      </trkpt>
      <trkpt lat="44.49592" lon="2.55007">
        <ele>540</ele>
        <time>2021-11-03T16:39:59Z</time>
      </trkpt>
      <trkpt lat="44.4955" lon="2.55209">
        <ele>548</ele>
        <time>2021-11-03T16:40:34Z</time>
      </trkpt>
      <trkpt lat="44.49578" lon="2.55254">
        <ele>550</ele>
        <time>2021-11-03T16:40:44Z</time>
      </trkpt>
      <trkpt lat="44.49783" lon="2.5516">
        <ele>548</ele>
        <time>2021-11-03T16:41:34Z</time>
      </trkpt>
      <trkpt lat="44.49827" lon="2.55291">
        <ele>545</ele>
        <time>2021-11-03T16:41:58Z</time>
      </trkpt>
      <trkpt lat="44.49887" lon="2.55333">
        <ele>545</ele>
        <time>2021-11-03T16:42:14Z</time>
      </trkpt>
      <trkpt lat="44.50011" lon="2.55403">
        <ele>561</ele>
        <time>2021-11-03T16:42:45Z</time>
      </trkpt>
      <trkpt lat="44.5" lon="2.55515">
        <ele>559</ele>
        <time>2021-11-03T16:43:04Z</time>
      </trkpt>
      <trkpt lat="44.49883" lon="2.55597">
        <ele>550</ele>
        <time>2021-11-03T16:43:35Z</time>
      </trkpt>
      <trkpt lat="44.49716" lon="2.55667">
        <ele>547</ele>
        <time>2021-11-03T16:44:15Z</time>
      </trkpt>
      <trkpt lat="44.49493" lon="2.55588">
        <ele>544</ele>
        <time>2021-11-03T16:45:09Z</time>
      </trkpt>
      <trkpt lat="44.49558" lon="2.55892">
        <ele>548</ele>
        <time>2021-11-03T16:46:02Z</time>
      </trkpt>
      <trkpt lat="44.49506" lon="2.56116">
        <ele>541</ele>
        <time>2021-11-03T16:46:41Z</time>
      </trkpt>
      <trkpt lat="44.49606" lon="2.56322">
        <ele>549</ele>
        <time>2021-11-03T16:47:23Z</time>
      </trkpt>
      <trkpt lat="44.49385" lon="2.56383">
        <ele>549</ele>
        <time>2021-11-03T16:48:15Z</time>
      </trkpt>
      <trkpt lat="44.49199" lon="2.56219">
        <ele>546</ele>
        <time>2021-11-03T16:49:07Z</time>
      </trkpt>
      <trkpt lat="44.49058" lon="2.56219">
        <ele>535</ele>
        <time>2021-11-03T16:49:40Z</time>
      </trkpt>
      <trkpt lat="44.48967" lon="2.56234">
        <ele>530</ele>
        <time>2021-11-03T16:50:01Z</time>
      </trkpt>
      <trkpt lat="44.48902" lon="2.56213">
        <ele>531</ele>
        <time>2021-11-03T16:50:17Z</time>
      </trkpt>
      <trkpt lat="44.48865" lon="2.56353">
        <ele>529</ele>
        <time>2021-11-03T16:50:41Z</time>
      </trkpt>
      <trkpt lat="44.48805" lon="2.56447">
        <ele>527</ele>
        <time>2021-11-03T16:51:02Z</time>
      </trkpt>
      <trkpt lat="44.48859" lon="2.56502">
        <ele>527</ele>
        <time>2021-11-03T16:51:18Z</time>
      </trkpt>
      <trkpt lat="44.48798" lon="2.56696">
        <ele>526</ele>
        <time>2021-11-03T16:51:53Z</time>
      </trkpt>
      <trkpt lat="44.48733" lon="2.56747">
        <ele>526</ele>
        <time>2021-11-03T16:52:11Z</time>
      </trkpt>
      <trkpt lat="44.48651" lon="2.56763">
        <ele>519</ele>
        <time>2021-11-03T16:52:30Z</time>
      </trkpt>
      <trkpt lat="44.48578" lon="2.5672">
        <ele>519</ele>
        <time>2021-11-03T16:52:49Z</time>
      </trkpt>
      <trkpt lat="44.48619" lon="2.56872">
        <ele>508</ele>
        <time>2021-11-03T16:53:16Z</time>
      </trkpt>
      <trkpt lat="44.48588" lon="2.56866">
        <ele>512</ele>
        <time>2021-11-03T16:53:23Z</time>
      </trkpt>
      <trkpt lat="44.48606" lon="2.57014">
        <ele>504</ele>
        <time>2021-11-03T16:53:48Z</time>
      </trkpt>
      <trkpt lat="44.48565" lon="2.57069">
        <ele>521</ele>
        <time>2021-11-03T16:54:01Z</time>
      </trkpt>
      <trkpt lat="44.48625" lon="2.57136">
        <ele>511</ele>
        <time>2021-11-03T16:54:19Z</time>
      </trkpt>
      <trkpt lat="44.48701" lon="2.57115">
        <ele>478</ele>
        <time>2021-11-03T16:54:37Z</time>
      </trkpt>
      <trkpt lat="44.48777" lon="2.57193">
        <ele>473</ele>
        <time>2021-11-03T16:54:59Z</time>
      </trkpt>
      <trkpt lat="44.48764" lon="2.57315">
        <ele>508</ele>
        <time>2021-11-03T16:55:20Z</time>
      </trkpt>
      <trkpt lat="44.48848" lon="2.57306">
        <ele>464</ele>
        <time>2021-11-03T16:55:39Z</time>
      </trkpt>
      <trkpt lat="44.48933" lon="2.57366">
        <ele>463</ele>
        <time>2021-11-03T16:56:02Z</time>
      </trkpt>
      <trkpt lat="44.49062" lon="2.57491">
        <ele>465</ele>
        <time>2021-11-03T16:56:38Z</time>
      </trkpt>
      <trkpt lat="44.4911" lon="2.57582">
        <ele>481</ele>
        <time>2021-11-03T16:56:57Z</time>
      </trkpt>
      <trkpt lat="44.49236" lon="2.57633">
        <ele>470</ele>
        <time>2021-11-03T16:57:28Z</time>
      </trkpt>
      <trkpt lat="44.4924" lon="2.57623">
        <ele>468</ele>
        <time>2021-11-03T16:57:30Z</time>
      </trkpt>
      <trkpt lat="44.49281" lon="2.57614">
        <ele>460</ele>
        <time>2021-11-03T16:57:39Z</time>
      </trkpt>
      <trkpt lat="44.49284" lon="2.57592">
        <ele>456</ele>
        <time>2021-11-03T16:57:43Z</time>
      </trkpt>
      <trkpt lat="44.49315" lon="2.57587">
        <ele>452</ele>
        <time>2021-11-03T16:57:50Z</time>
      </trkpt>
      <trkpt lat="44.49338" lon="2.57593">
        <ele>449</ele>
        <time>2021-11-03T16:57:56Z</time>
      </trkpt>
      <trkpt lat="44.49321" lon="2.57574">
        <ele>449</ele>
        <time>2021-11-03T16:58:01Z</time>
      </trkpt>
      <trkpt lat="44.49283" lon="2.57581">
        <ele>455</ele>
        <time>2021-11-03T16:58:10Z</time>
      </trkpt>
      <trkpt lat="44.49286" lon="2.57558">
        <ele>450</ele>
        <time>2021-11-03T16:58:14Z</time>
      </trkpt>
      <trkpt lat="44.49312" lon="2.57549">
        <ele>446</ele>
        <time>2021-11-03T16:58:20Z</time>
      </trkpt>
      <trkpt lat="44.49326" lon="2.57509">
        <ele>439</ele>
        <time>2021-11-03T16:58:27Z</time>
      </trkpt>
      <trkpt lat="44.49353" lon="2.57545">
        <ele>441</ele>
        <time>2021-11-03T16:58:36Z</time>
      </trkpt>
    </trkseg>
  </trk>
</gpx>